Time;durP1;ratioP1;P1;durP2;ratioP2;P2;SDS_P1;SDS_P2;PMS_P1;PMS_P2;Temp;Humidity;BMP_temperature;BMP_pressure;BME280_temperature;BME280_humidity;BME280_pressure;Samples;Min_cycle;Max_cycle;Signal;HPM_P1;HPM_P2
2023/05/18 00:01:34;;;;;;;5.65;0.85;;;8.40;99.90;;;;;;5015179;28;20760;-88
2023/05/18 00:04:00;;;;;;;3.20;0.73;;;8.40;99.90;;;;;;5032787;28;20089;-87
2023/05/18 00:06:26;;;;;;;4.95;1.35;;;8.40;99.90;;;;;;5031303;28;20518;-87
2023/05/18 00:08:52;;;;;;;3.40;1.10;;;8.40;99.90;;;;;;5017633;28;20041;-88
2023/05/18 00:11:18;;;;;;;3.10;1.00;;;9.50;99.90;;;;;;5065440;28;20120;-88
2023/05/18 00:13:43;;;;;;;5.53;1.30;;;8.40;99.90;;;;;;5049867;28;20611;-87
2023/05/18 00:16:11;;;;;;;3.50;1.40;;;9.60;99.90;;;;;;5064442;28;20123;-88
2023/05/18 00:18:36;;;;;;;7.30;0.80;;;8.40;99.90;;;;;;5048549;28;20037;-88
2023/05/18 00:21:03;;;;;;;5.28;1.23;;;8.30;99.90;;;;;;5032431;28;20058;-88
2023/05/18 00:23:31;;;;;;;3.92;0.88;;;8.40;99.90;;;;;;5030983;28;20123;-88
2023/05/18 00:25:58;;;;;;;4.30;0.82;;;8.40;99.90;;;;;;5065750;28;20095;-88
2023/05/18 00:28:25;;;;;;;9.00;0.90;;;8.40;99.90;;;;;;5047839;28;20135;-88
2023/05/18 00:30:51;;;;;;;2.63;0.98;;;8.30;99.90;;;;;;5032090;28;20076;-87
2023/05/18 00:33:16;;;;;;;5.53;0.70;;;9.80;99.90;;;;;;5014301;28;20113;-87
2023/05/18 00:35:42;;;;;;;7.20;0.93;;;9.40;99.90;;;;;;5031638;28;20090;-87
2023/05/18 00:38:08;;;;;;;4.80;0.80;;;9.50;99.90;;;;;;5048187;28;20044;-87
2023/05/18 00:40:33;;;;;;;4.65;0.98;;;8.30;99.90;;;;;;5063726;28;20404;-87
2023/05/18 00:42:59;;;;;;;3.63;0.75;;;8.70;99.90;;;;;;5032202;28;20040;-88
2023/05/18 00:45:25;;;;;;;5.38;1.20;;;8.30;99.90;;;;;;5030347;28;20079;-88
2023/05/18 00:47:51;;;;;;;4.95;0.85;;;9.20;99.90;;;;;;5065658;28;20131;-88
2023/05/18 00:50:17;;;;;;;4.60;0.98;;;9.00;99.90;;;;;;5014707;28;20418;-87
2023/05/18 00:52:45;;;;;;;2.45;0.80;;;8.30;99.90;;;;;;5048369;28;20044;-88
2023/05/18 00:55:11;;;;;;;1.88;0.68;;;8.90;99.90;;;;;;5064913;28;20079;-88
2023/05/18 00:57:40;;;;;;;5.72;1.10;;;8.60;99.90;;;;;;5047385;28;20081;-88
2023/05/18 01:00:09;;;;;;;7.07;1.00;;;8.30;99.90;;;;;;5049319;28;20040;-89
2023/05/18 01:02:41;;;;;;;9.25;0.90;;;8.30;99.90;;;;;;5030623;28;20041;-88
2023/05/18 01:05:07;;;;;;;7.53;1.00;;;9.20;99.90;;;;;;5032740;28;20615;-88
2023/05/18 01:07:33;;;;;;;1.80;0.60;;;8.30;99.90;;;;;;5063474;28;20136;-88
2023/05/18 01:09:59;;;;;;;3.45;0.95;;;8.90;99.90;;;;;;5064802;28;20132;-88
2023/05/18 01:12:31;;;;;;;5.53;1.02;;;8.60;99.90;;;;;;5064837;28;20047;-88
2023/05/18 01:15:19;;;;;;;2.78;0.95;;;8.30;99.90;;;;;;5063658;28;20453;-88
2023/05/18 01:17:59;;;;;;;5.38;1.00;;;8.30;99.90;;;;;;5065309;28;20041;-88
2023/05/18 01:20:40;;;;;;;3.50;0.90;;;8.30;99.90;;;;;;5047214;28;20094;-88
2023/05/18 01:23:20;;;;;;;1.95;0.90;;;8.80;99.90;;;;;;5064504;28;20074;-88
2023/05/18 01:25:59;;;;;;;3.67;0.95;;;8.30;99.90;;;;;;5048323;28;20075;-87
2023/05/18 01:28:31;;;;;;;4.40;1.17;;;8.30;99.90;;;;;;5046555;28;20040;-88
2023/05/18 01:30:57;;;;;;;3.05;0.73;;;8.30;99.90;;;;;;5064628;28;20131;-88
2023/05/18 01:33:24;;;;;;;5.53;1.00;;;9.20;99.90;;;;;;5047122;28;20093;-88
2023/05/18 01:35:50;;;;;;;5.07;0.85;;;10.00;99.90;;;;;;5014568;28;20037;-88
2023/05/18 01:38:22;;;;;;;5.82;1.55;;;8.30;99.90;;;;;;5048413;28;20047;-88
2023/05/18 01:40:54;;;;;;;3.63;0.82;;;8.30;99.90;;;;;;5063222;28;20036;-88
2023/05/18 01:43:22;;;;;;;5.13;0.85;;;8.30;99.90;;;;;;5048898;28;20513;-87
2023/05/18 01:45:55;;;;;;;5.68;0.80;;;8.30;99.90;;;;;;5046715;28;20048;-88
2023/05/18 01:48:24;;;;;;;4.80;0.80;;;8.30;99.90;;;;;;5047875;28;20371;-88
2023/05/18 01:50:54;;;;;;;3.03;0.93;;;8.30;99.90;;;;;;5047810;28;20150;-88
2023/05/18 01:53:34;;;;;;;4.65;0.57;;;8.40;99.90;;;;;;5046770;28;20153;-88
2023/05/18 01:56:01;;;;;;;4.45;0.80;;;8.30;99.90;;;;;;5048737;28;20040;-88
2023/05/18 01:58:27;;;;;;;4.88;1.63;;;8.30;99.90;;;;;;5046878;28;20614;-89
2023/05/18 02:00:53;;;;;;;6.40;1.67;;;8.30;99.90;;;;;;5032256;28;20454;-88
2023/05/18 02:03:19;;;;;;;2.47;0.80;;;9.00;99.90;;;;;;5015084;28;20041;-88
2023/05/18 02:05:45;;;;;;;4.80;0.90;;;8.40;99.90;;;;;;5047662;28;20056;-88
2023/05/18 02:08:11;;;;;;;4.50;0.88;;;8.40;99.90;;;;;;5031753;28;20040;-87
2023/05/18 02:10:36;;;;;;;6.85;0.90;;;8.40;99.90;;;;;;5030453;28;20041;-88
2023/05/18 02:13:02;;;;;;;4.15;0.70;;;8.50;99.90;;;;;;5065429;28;20131;-88
2023/05/18 02:15:28;;;;;;;5.03;0.73;;;8.80;99.90;;;;;;5013455;28;20048;-88
2023/05/18 02:17:56;;;;;;;3.53;1.10;;;8.40;99.90;;;;;;5031892;28;20036;-89
2023/05/18 02:20:22;;;;;;;2.65;0.60;;;9.20;99.90;;;;;;5051606;28;20071;-89
2023/05/18 02:22:48;;;;;;;7.85;0.80;;;8.90;99.90;;;;;;5050880;28;20450;-88
2023/05/18 02:25:14;;;;;;;4.15;0.98;;;8.40;99.90;;;;;;5017972;28;20064;-88
2023/05/18 02:27:39;;;;;;;4.13;0.70;;;8.50;99.90;;;;;;5066850;28;20045;-88
2023/05/18 02:30:07;;;;;;;5.68;0.75;;;9.10;99.90;;;;;;5036172;28;20052;-87
2023/05/18 02:32:41;;;;;;;2.17;0.50;;;8.50;99.90;;;;;;5036097;28;20048;-89
2023/05/18 02:35:08;;;;;;;5.35;1.02;;;8.50;99.90;;;;;;5038825;28;20556;-87
2023/05/18 02:37:38;;;;;;;6.43;1.02;;;8.50;99.90;;;;;;5069669;28;20044;-88
2023/05/18 02:40:11;;;;;;;6.82;0.70;;;8.40;99.90;;;;;;5036944;28;20178;-87
2023/05/18 02:42:37;;;;;;;;;;;8.40;99.90;;;;;;5069761;28;20095;-88
2023/05/18 02:45:03;;;;;;;3.80;1.08;;;8.40;99.90;;;;;;5050511;28;19920;-87
2023/05/18 02:47:28;;;;;;;4.57;1.08;;;8.40;99.90;;;;;;5037724;28;20106;-88
2023/05/18 02:49:54;;;;;;;5.13;1.00;;;8.40;99.90;;;;;;5034918;28;20044;-87
2023/05/18 02:52:20;;;;;;;4.18;0.95;;;8.60;99.90;;;;;;5053392;28;20051;-88
2023/05/18 02:54:45;;;;;;;3.15;0.90;;;8.40;99.90;;;;;;5050602;28;20041;-88
2023/05/18 02:57:12;;;;;;;4.30;0.73;;;8.90;99.90;;;;;;5018783;28;20040;-88
2023/05/18 02:59:38;;;;;;;6.05;0.90;;;9.20;99.90;;;;;;5035598;28;20084;-88
2023/05/18 03:02:04;;;;;;;4.38;0.70;;;9.00;99.90;;;;;;5050536;28;20404;-87
2023/05/18 03:04:30;;;;;;;3.00;0.70;;;9.60;99.90;;;;;;5068218;28;20127;-88
2023/05/18 03:06:57;;;;;;;3.95;0.70;;;9.30;99.90;;;;;;5049868;28;20052;-88
2023/05/18 03:09:23;;;;;;;8.30;1.05;;;9.30;99.90;;;;;;5034322;28;20084;-88
2023/05/18 03:11:50;;;;;;;6.50;0.82;;;8.40;99.90;;;;;;5050490;28;20465;-88
2023/05/18 03:14:16;;;;;;;1.98;0.70;;;8.40;99.90;;;;;;5066661;28;20049;-88
2023/05/18 03:16:41;;;;;;;3.70;0.77;;;8.40;99.90;;;;;;5050984;28;20037;-88
2023/05/18 03:19:07;;;;;;;4.90;0.90;;;8.40;99.90;;;;;;5049072;28;20566;-88
2023/05/18 03:21:34;;;;;;;8.05;1.00;;;8.40;99.90;;;;;;5018067;28;20037;-88
2023/05/18 03:24:01;;;;;;;4.88;0.77;;;8.40;99.90;;;;;;5049400;28;20052;-87
2023/05/18 03:26:29;;;;;;;6.45;1.20;;;8.30;99.90;;;;;;5034057;28;20056;-88
2023/05/18 03:28:56;;;;;;;6.45;1.20;;;8.40;99.90;;;;;;5049379;28;20047;-87
2023/05/18 03:31:22;;;;;;;2.50;0.82;;;8.40;99.90;;;;;;5049382;28;20551;-87
2023/05/18 03:33:47;;;;;;;7.57;0.95;;;9.50;99.90;;;;;;5034122;28;20055;-87
2023/05/18 03:36:15;;;;;;;3.75;0.93;;;8.40;99.90;;;;;;5048827;28;20053;-87
2023/05/18 03:38:44;;;;;;;4.05;0.93;;;9.40;99.90;;;;;;5051544;28;20363;-87
2023/05/18 03:41:10;;;;;;;8.07;0.90;;;8.40;99.90;;;;;;5049118;28;20710;-88
2023/05/18 03:43:36;;;;;;;3.38;1.08;;;8.40;99.90;;;;;;5069870;28;20032;-87
2023/05/18 03:46:02;;;;;;;4.75;0.77;;;8.40;99.90;;;;;;5068416;28;20047;-89
2023/05/18 03:48:28;;;;;;;5.03;0.80;;;8.40;99.90;;;;;;5052057;28;20042;-89
2023/05/18 03:50:54;;;;;;;6.82;0.90;;;8.50;99.90;;;;;;5066738;28;20486;-88
2023/05/18 03:53:21;;;;;;;5.13;0.77;;;9.00;99.90;;;;;;5049340;28;20041;-88
2023/05/18 03:55:51;;;;;;;3.08;1.83;;;8.50;99.90;;;;;;5035118;28;20388;-88
2023/05/18 03:58:18;;;;;;;3.08;0.93;;;8.50;99.90;;;;;;5049002;28;20093;-88
2023/05/18 04:00:46;;;;;;;2.38;0.57;;;8.50;99.90;;;;;;5049979;28;20055;-88
2023/05/18 04:03:13;;;;;;;3.92;0.95;;;8.50;99.90;;;;;;5032972;28;20055;-88
2023/05/18 04:05:45;;;;;;;1.73;0.93;;;9.60;99.90;;;;;;5016810;28;20413;-88
2023/05/18 04:08:13;;;;;;;3.38;0.95;;;8.60;99.90;;;;;;5034007;28;20048;-88
2023/05/18 04:10:43;;;;;;;6.80;1.27;;;9.20;99.90;;;;;;5048417;28;20397;-88
2023/05/18 04:13:09;;;;;;;5.47;1.05;;;8.60;99.90;;;;;;5066596;28;20044;-88
2023/05/18 04:15:35;;;;;;;3.78;1.00;;;8.90;99.90;;;;;;5015309;28;20055;-88
2023/05/18 04:18:01;;;;;;;4.93;1.10;;;8.60;99.90;;;;;;5065697;28;20040;-88
2023/05/18 04:20:28;;;;;;;5.32;0.98;;;8.60;99.90;;;;;;5065195;28;20070;-88
2023/05/18 04:22:56;;;;;;;4.95;0.80;;;9.50;99.90;;;;;;5015845;28;20048;-87
2023/05/18 04:25:26;;;;;;;5.60;1.10;;;9.00;99.90;;;;;;5049851;28;20060;-87
2023/05/18 04:27:53;;;;;;;6.18;1.23;;;9.40;99.90;;;;;;5048667;28;20063;-87
2023/05/18 04:30:21;;;;;;;6.13;0.80;;;8.70;99.90;;;;;;5033225;28;20046;-87
2023/05/18 04:32:47;;;;;;;5.85;1.00;;;8.80;99.90;;;;;;5048603;28;20105;-88
2023/05/18 04:35:13;;;;;;;3.33;1.15;;;9.50;99.90;;;;;;5049787;28;20131;-88
2023/05/18 04:37:41;;;;;;;6.63;1.10;;;8.80;99.90;;;;;;5016164;28;20135;-88
2023/05/18 04:40:15;;;;;;;6.75;1.20;;;8.80;99.90;;;;;;5033366;28;20084;-88
2023/05/18 04:42:46;;;;;;;7.90;1.20;;;8.90;99.90;;;;;;5050689;28;20455;-89
2023/05/18 04:45:19;;;;;;;4.88;1.30;;;8.90;99.90;;;;;;5048675;28;20394;-88
2023/05/18 04:47:51;;;;;;;4.53;0.90;;;8.90;99.90;;;;;;5049981;28;20036;-88
2023/05/18 04:50:18;;;;;;;4.82;0.90;;;9.00;99.90;;;;;;5065273;28;20085;-88
2023/05/18 04:52:49;;;;;;;1.77;0.90;;;9.00;99.90;;;;;;5049004;28;20127;-88
2023/05/18 04:55:24;;;;;;;4.85;1.00;;;10.10;99.90;;;;;;5033481;28;20090;-88
2023/05/18 04:57:55;;;;;;;4.40;1.00;;;9.00;99.90;;;;;;5065150;28;20401;-89
2023/05/18 05:00:22;;;;;;;6.38;0.68;;;9.10;99.90;;;;;;5066389;28;20037;-88
2023/05/18 05:02:48;;;;;;;5.05;1.10;;;9.10;99.90;;;;;;5031393;28;20040;-88
2023/05/18 05:05:14;;;;;;;4.43;0.82;;;9.10;99.90;;;;;;5049112;28;20056;-88
2023/05/18 05:07:40;;;;;;;9.50;0.98;;;9.10;99.90;;;;;;5031828;28;20051;-88
2023/05/18 05:10:06;;;;;;;7.47;0.60;;;9.10;99.90;;;;;;5065447;28;20621;-89
2023/05/18 05:12:32;;;;;;;8.90;1.10;;;9.10;99.90;;;;;;5065421;28;20041;-88
2023/05/18 05:14:58;;;;;;;7.25;0.90;;;9.10;99.90;;;;;;5014885;28;20352;-89
2023/05/18 05:17:24;;;;;;;6.40;0.93;;;9.10;99.90;;;;;;5065887;28;20052;-88
2023/05/18 05:19:50;;;;;;;2.38;0.70;;;9.10;99.90;;;;;;5048028;28;20052;-88
2023/05/18 05:22:16;;;;;;;9.50;1.25;;;9.10;99.90;;;;;;5049653;28;20071;-88
2023/05/18 05:24:42;;;;;;;4.03;0.70;;;9.10;99.90;;;;;;5030806;28;20114;-87
2023/05/18 05:27:08;;;;;;;1.65;0.63;;;9.40;99.90;;;;;;5015418;28;20048;-88
2023/05/18 05:29:33;;;;;;;2.20;0.70;;;10.00;99.90;;;;;;5031704;28;20052;-87
2023/05/18 05:31:59;;;;;;;6.40;0.85;;;9.20;99.90;;;;;;5063516;28;20448;-87
2023/05/18 05:34:25;;;;;;;4.45;0.90;;;10.40;99.90;;;;;;5031796;28;20400;-86
2023/05/18 05:36:53;;;;;;;4.43;0.70;;;9.50;99.90;;;;;;5063320;28;20044;-87
2023/05/18 05:39:19;;;;;;;4.03;0.68;;;9.40;99.90;;;;;;5015044;28;20158;-87
2023/05/18 05:41:45;;;;;;;3.42;0.55;;;9.70;99.90;;;;;;5046584;28;20425;-87
2023/05/18 05:44:11;;;;;;;4.28;0.98;;;9.40;99.90;;;;;;5031193;28;20044;-87
2023/05/18 05:46:36;;;;;;;4.35;0.90;;;10.50;99.90;;;;;;5030914;28;20160;-88
2023/05/18 05:49:02;;;;;;;3.80;0.65;;;9.50;99.90;;;;;;5015046;28;20087;-88
2023/05/18 05:51:28;;;;;;;3.45;1.10;;;9.60;99.90;;;;;;5015854;28;20045;-88
2023/05/18 05:53:54;;;;;;;4.35;0.88;;;9.40;99.90;;;;;;5064831;28;20134;-86
2023/05/18 05:56:19;;;;;;;4.75;1.02;;;10.30;99.90;;;;;;5036267;28;20174;-88
2023/05/18 05:58:45;;;;;;;3.17;0.77;;;9.90;99.90;;;;;;5050695;28;20093;-88
2023/05/18 06:01:11;;;;;;;4.03;1.10;;;10.60;99.90;;;;;;5035302;28;20378;-82
2023/05/18 06:03:37;;;;;;;4.25;0.98;;;9.90;99.90;;;;;;5052252;28;20033;-92
2023/05/18 06:06:03;;;;;;;7.70;1.30;;;10.00;99.90;;;;;;5018663;28;20064;-90
2023/05/18 06:08:28;;;;;;;4.65;1.00;;;10.10;99.90;;;;;;5036159;28;20076;-91
2023/05/18 06:10:54;;;;;;;4.53;0.80;;;10.20;99.90;;;;;;5034852;28;20044;-88
2023/05/18 06:13:20;;;;;;;6.28;0.95;;;10.30;99.90;;;;;;5068742;28;20049;-89
2023/05/18 06:15:46;;;;;;;6.00;1.27;;;10.30;99.90;;;;;;5051142;28;20047;-90
2023/05/18 06:18:11;;;;;;;3.33;1.67;;;10.40;99.90;;;;;;5069513;28;20036;-89
2023/05/18 06:20:37;;;;;;;9.32;1.10;;;10.50;99.90;;;;;;5051311;28;20040;-93
2023/05/18 06:23:03;;;;;;;1.88;0.80;;;11.10;99.90;;;;;;5054490;28;20048;-94
2023/05/18 06:25:29;;;;;;;6.07;0.80;;;10.60;99.90;;;;;;5052601;28;20060;-88
2023/05/18 06:27:55;;;;;;;4.07;0.90;;;10.70;99.90;;;;;;5035095;28;20044;-85
2023/05/18 06:30:21;;;;;;;3.65;0.80;;;10.70;99.90;;;;;;5051773;28;20055;-85
2023/05/18 06:32:46;;;;;;;4.93;1.80;;;10.70;99.90;;;;;;5050229;28;20045;-84
2023/05/18 06:35:12;;;;;;;3.17;0.88;;;10.70;99.90;;;;;;5018085;28;20453;-85
2023/05/18 06:37:38;;;;;;;3.30;0.52;;;10.70;99.90;;;;;;5032968;28;20171;-84
2023/05/18 06:40:06;;;;;;;1.77;0.47;;;10.70;99.90;;;;;;5035184;28;20040;-85
2023/05/18 06:42:32;;;;;;;7.85;1.90;;;10.70;99.90;;;;;;5050519;28;20040;-84
2023/05/18 06:44:58;;;;;;;7.15;0.98;;;10.70;99.90;;;;;;5067037;28;20044;-82
2023/05/18 06:47:24;;;;;;;8.32;1.60;;;10.70;99.90;;;;;;5068223;28;20043;-83
2023/05/18 06:49:50;;;;;;;4.35;0.80;;;10.70;99.90;;;;;;5049698;28;20493;-83
2023/05/18 06:52:15;;;;;;;7.13;0.80;;;10.80;99.90;;;;;;5051614;28;20448;-83
2023/05/18 06:54:42;;;;;;;6.65;1.00;;;11.00;99.90;;;;;;5066576;28;20420;-83
2023/05/18 06:57:07;;;;;;;2.15;0.45;;;11.00;99.90;;;;;;5067657;28;20072;-84
2023/05/18 06:59:36;;;;;;;4.93;0.90;;;10.80;99.90;;;;;;5066502;28;20053;-81
2023/05/18 07:02:02;;;;;;;7.25;1.05;;;10.90;99.90;;;;;;5066751;28;20049;-83
2023/05/18 07:04:28;;;;;;;3.80;0.63;;;10.90;99.90;;;;;;5067034;28;20158;-83
2023/05/18 07:06:54;;;;;;;4.97;0.90;;;10.90;99.90;;;;;;5048627;28;20094;-83
2023/05/18 07:09:22;;;;;;;6.07;1.10;;;11.00;99.90;;;;;;5051166;28;20044;-83
2023/05/18 07:11:53;;;;;;;1.40;0.60;;;11.00;99.90;;;;;;5050315;28;20056;-83
2023/05/18 07:14:19;;;;;;;2.45;0.77;;;11.00;99.90;;;;;;5050812;28;20037;-83
2023/05/18 07:16:46;;;;;;;5.50;0.90;;;11.10;99.90;;;;;;5049778;28;20048;-83
2023/05/18 07:19:12;;;;;;;6.43;1.05;;;11.10;99.90;;;;;;5033678;28;20049;-83
2023/05/18 07:21:38;;;;;;;3.17;0.80;;;11.30;99.90;;;;;;5050973;28;20048;-83
2023/05/18 07:24:04;;;;;;;4.30;0.70;;;11.30;99.90;;;;;;5065920;28;20524;-83
2023/05/18 07:26:31;;;;;;;3.05;0.55;;;11.40;99.90;;;;;;5050303;28;20139;-83
2023/05/18 07:28:56;;;;;;;5.57;0.82;;;11.50;99.90;;;;;;5065509;28;20049;-83
2023/05/18 07:31:22;;;;;;;4.30;1.10;;;11.60;99.90;;;;;;5066951;28;20040;-83
2023/05/18 07:33:48;;;;;;;3.58;0.75;;;11.70;99.90;;;;;;5065797;28;20044;-84
2023/05/18 07:36:14;;;;;;;2.53;0.90;;;11.80;99.90;;;;;;5033394;28;20036;-83
2023/05/18 07:38:40;;;;;;;3.58;0.70;;;12.00;99.90;;;;;;5049884;28;20083;-83
2023/05/18 07:41:06;;;;;;;5.05;0.77;;;12.10;99.90;;;;;;5049777;28;20076;-84
2023/05/18 07:43:31;;;;;;;6.88;0.77;;;12.20;99.90;;;;;;5050458;28;20551;-84
2023/05/18 07:45:57;;;;;;;3.75;0.70;;;12.30;99.90;;;;;;5048661;28;20083;-83
2023/05/18 07:48:23;;;;;;;8.80;0.85;;;12.30;99.90;;;;;;5049927;28;20094;-84
2023/05/18 07:50:48;;;;;;;1.95;0.90;;;12.30;99.90;;;;;;5065161;28;20052;-83
2023/05/18 07:53:15;;;;;;;4.72;1.10;;;12.10;99.90;;;;;;5066213;28;20101;-83
2023/05/18 07:55:41;;;;;;;4.45;0.90;;;12.10;99.90;;;;;;5049257;28;20051;-84
2023/05/18 07:58:07;;;;;;;5.80;0.98;;;12.10;99.90;;;;;;5065549;28;20049;-83
2023/05/18 08:00:33;;;;;;;2.80;0.70;;;12.10;99.90;;;;;;5033661;28;20032;-83
2023/05/18 08:02:59;;;;;;;4.53;0.57;;;12.10;99.90;;;;;;5048718;28;20405;-84
2023/05/18 08:05:25;;;;;;;6.07;0.65;;;12.30;99.90;;;;;;5049767;28;20068;-83
2023/05/18 08:07:51;;;;;;;7.50;1.27;;;12.40;99.90;;;;;;5048644;28;20044;-83
2023/05/18 08:10:17;;;;;;;4.70;0.90;;;12.50;99.90;;;;;;5032797;28;20386;-83
2023/05/18 08:12:43;;;;;;;3.50;1.02;;;12.60;99.90;;;;;;5065096;28;20209;-83
2023/05/18 08:15:09;;;;;;;4.82;0.57;;;12.70;99.90;;;;;;5065370;28;20044;-84
2023/05/18 08:17:35;;;;;;;3.92;1.00;;;12.80;99.90;;;;;;5048882;28;20040;-83
2023/05/18 08:20:03;;;;;;;4.40;1.50;;;12.90;99.90;;;;;;5048612;28;20047;-83
2023/05/18 08:22:29;;;;;;;5.60;0.90;;;13.00;99.90;;;;;;5049361;28;20040;-83
2023/05/18 08:24:56;;;;;;;3.33;0.77;;;13.00;99.90;;;;;;5064483;28;20433;-83
2023/05/18 08:27:22;;;;;;;7.03;1.17;;;13.10;99.90;;;;;;5049196;28;20767;-84
2023/05/18 08:29:48;;;;;;;6.95;0.90;;;13.10;99.90;;;;;;5048146;28;20076;-83
2023/05/18 08:32:13;;;;;;;2.25;0.75;;;13.20;99.90;;;;;;5065446;28;20056;-83
2023/05/18 08:34:40;;;;;;;4.38;0.90;;;13.30;99.90;;;;;;5065292;28;20489;-83
2023/05/18 08:37:06;;;;;;;4.13;1.05;;;13.50;99.90;;;;;;5031950;28;20131;-83
2023/05/18 08:39:32;;;;;;;6.38;0.80;;;13.70;99.90;;;;;;5049176;28;20044;-83
2023/05/18 08:42:06;;;;;;;4.43;1.00;;;13.90;99.90;;;;;;5065020;28;20526;-83
2023/05/18 08:44:44;;;;;;;3.88;0.90;;;14.10;99.90;;;;;;5065416;28;20048;-83
2023/05/18 08:47:11;;;;;;;3.63;0.98;;;14.30;99.90;;;;;;5065714;28;20495;-83
2023/05/18 08:49:38;;;;;;;6.93;1.00;;;14.40;99.90;;;;;;5065334;28;20409;-83
2023/05/18 08:52:06;;;;;;;4.15;0.60;;;14.60;99.90;;;;;;5065111;28;20040;-83
2023/05/18 08:54:34;;;;;;;4.03;1.00;;;14.70;99.90;;;;;;5064259;28;20052;-83
2023/05/18 08:57:01;;;;;;;2.95;0.95;;;14.80;99.90;;;;;;5048958;28;20112;-83
2023/05/18 08:59:30;;;;;;;10.57;1.58;;;14.90;99.90;;;;;;5031347;28;20597;-84
2023/05/18 09:01:56;;;;;;;9.50;1.45;;;15.00;99.90;;;;;;5049123;28;20123;-83
2023/05/18 09:04:22;;;;;;;11.25;1.52;;;15.10;99.90;;;;;;5065109;28;20539;-84
2023/05/18 09:06:50;;;;;;;4.22;1.10;;;15.30;99.90;;;;;;5064525;28;20048;-83
2023/05/18 09:09:17;;;;;;;3.22;0.85;;;15.30;99.90;;;;;;5047961;28;20036;-83
2023/05/18 09:11:45;;;;;;;3.10;0.85;;;15.20;99.90;;;;;;5048240;28;20415;-83
2023/05/18 09:14:11;;;;;;;7.20;0.82;;;15.20;99.90;;;;;;5065346;28;20115;-83
2023/05/18 09:16:37;;;;;;;6.07;1.00;;;15.20;99.90;;;;;;5048172;28;20080;-84
2023/05/18 09:19:03;;;;;;;3.42;1.38;;;15.20;99.90;;;;;;5065540;28;20153;-83
2023/05/18 09:21:32;;;;;;;6.22;1.02;;;15.20;99.90;;;;;;5064638;28;20041;-83
2023/05/18 09:24:01;;;;;;;2.55;0.60;;;15.20;99.60;;;;;;5065143;28;20054;-84
2023/05/18 09:26:27;;;;;;;4.65;1.20;;;15.30;99.50;;;;;;5047935;28;20040;-83
2023/05/18 09:28:53;;;;;;;4.40;1.52;;;15.50;99.60;;;;;;5046843;28;20047;-83
2023/05/18 09:31:23;;;;;;;3.20;0.77;;;15.60;99.00;;;;;;5065380;28;20044;-83
2023/05/18 09:33:50;;;;;;;3.80;0.98;;;15.70;99.00;;;;;;5047387;28;20040;-83
2023/05/18 09:36:16;;;;;;;3.05;1.05;;;15.80;99.10;;;;;;5064784;28;20047;-84
2023/05/18 09:38:44;;;;;;;3.28;0.90;;;16.00;99.00;;;;;;5064568;28;20054;-84
2023/05/18 09:41:17;;;;;;;5.78;1.15;;;16.30;99.00;;;;;;5064478;28;20123;-84
2023/05/18 09:43:44;;;;;;;;;;;16.50;98.40;;;;;;5048756;28;20043;-82
2023/05/18 09:46:11;;;;;;;4.32;0.90;;;16.50;97.00;;;;;;5063924;28;19967;-84
2023/05/18 09:48:49;;;;;;;5.05;1.20;;;16.50;98.40;;;;;;5048309;28;20036;-84
2023/05/18 09:51:17;;;;;;;5.65;0.90;;;16.30;97.70;;;;;;5064688;28;20040;-83
2023/05/18 09:54:05;;;;;;;2.65;0.77;;;16.10;97.90;;;;;;5032000;28;20044;-83
2023/05/18 09:56:35;;;;;;;7.20;1.23;;;16.10;97.60;;;;;;5064760;28;20465;-84
2023/05/18 09:59:09;;;;;;;4.93;0.90;;;16.10;97.70;;;;;;5048037;28;20402;-83
2023/05/18 10:01:35;;;;;;;4.50;0.80;;;15.20;97.00;;;;;;5048395;28;20139;-84
2023/05/18 10:04:03;;;;;;;5.38;0.90;;;16.40;97.40;;;;;;5063658;28;20516;-84
2023/05/18 10:06:30;;;;;;;3.75;0.90;;;16.40;97.20;;;;;;5047249;28;20532;-83
2023/05/18 10:09:00;;;;;;;2.97;0.85;;;16.50;97.10;;;;;;5046830;28;20076;-83
2023/05/18 10:11:30;;;;;;;4.05;0.85;;;16.40;97.10;;;;;;5047423;28;20127;-84
2023/05/18 10:13:57;;;;;;;4.13;1.02;;;16.20;96.80;;;;;;5063806;28;20517;-83
2023/05/18 10:16:24;;;;;;;2.92;0.80;;;16.00;97.10;;;;;;5030622;28;20098;-83
2023/05/18 10:18:53;;;;;;;3.72;1.00;;;15.70;96.90;;;;;;5064461;28;20056;-84
2023/05/18 10:21:22;;;;;;;4.65;1.20;;;15.40;97.10;;;;;;5062987;28;20141;-83
2023/05/18 10:23:49;;;;;;;3.38;1.02;;;15.10;97.30;;;;;;5046842;28;20052;-83
2023/05/18 10:26:21;;;;;;;5.10;0.60;;;15.00;97.40;;;;;;5062906;28;20056;-83
2023/05/18 10:28:49;;;;;;;6.20;1.10;;;14.90;97.50;;;;;;5063074;28;20048;-83
2023/05/18 10:31:15;;;;;;;4.10;1.42;;;14.70;97.30;;;;;;5047359;28;20409;-83
2023/05/18 10:33:43;;;;;;;3.75;1.30;;;14.50;97.60;;;;;;5029628;28;20520;-83
2023/05/18 10:36:10;;;;;;;3.75;1.00;;;14.50;97.70;;;;;;5063702;28;20080;-83
2023/05/18 10:38:41;;;;;;;4.32;1.60;;;14.60;97.90;;;;;;5063198;28;20076;-83
2023/05/18 10:41:08;;;;;;;3.30;0.80;;;14.80;98.00;;;;;;5033135;28;20109;-83
2023/05/18 10:43:35;;;;;;;1.58;0.52;;;15.00;97.70;;;;;;5066643;28;20135;-83
2023/05/18 10:46:01;;;;;;;3.33;0.80;;;15.10;97.70;;;;;;5066616;28;20048;-83
2023/05/18 10:48:28;;;;;;;4.47;0.85;;;15.20;97.50;;;;;;5050378;28;20059;-83
2023/05/18 10:50:55;;;;;;;4.68;0.70;;;15.30;97.80;;;;;;5067660;28;20048;-82
2023/05/18 10:53:23;;;;;;;9.02;0.90;;;15.50;97.50;;;;;;5069010;28;20721;-82
2023/05/18 10:55:53;;;;;;;5.07;1.00;;;15.60;97.30;;;;;;5067779;28;20524;-83
2023/05/18 10:58:27;;;;;;;1.80;0.52;;;15.80;97.30;;;;;;5066637;28;20045;-84
2023/05/18 11:00:59;;;;;;;4.22;0.90;;;16.00;97.30;;;;;;5050552;28;20067;-83
2023/05/18 11:03:26;;;;;;;3.03;0.80;;;15.90;97.00;;;;;;5067010;28;20044;-83
2023/05/18 11:06:09;;;;;;;3.97;1.17;;;15.90;96.60;;;;;;5050250;28;20045;-83
2023/05/18 11:08:43;;;;;;;3.40;0.90;;;15.80;95.60;;;;;;5066408;28;20121;-83
2023/05/18 11:11:09;;;;;;;6.13;0.70;;;15.70;96.50;;;;;;5066839;28;20044;-83
2023/05/18 11:13:37;;;;;;;3.53;0.85;;;15.80;96.80;;;;;;5033529;28;20108;-83
2023/05/18 11:16:05;;;;;;;3.25;1.00;;;15.90;96.90;;;;;;5065739;28;20047;-83
2023/05/18 11:18:48;;;;;;;5.28;1.20;;;16.00;96.90;;;;;;5066713;28;20068;-83
2023/05/18 11:21:23;;;;;;;;;;;15.20;96.40;;;;;;5049599;28;20044;-83
2023/05/18 11:24:23;;;;;;;5.95;1.13;;;16.10;95.40;;;;;;5049453;28;20003;-83
2023/05/18 11:26:57;;;;;;;3.92;0.80;;;16.20;96.60;;;;;;5067976;28;20052;-82
2023/05/18 11:29:30;;;;;;;3.33;0.80;;;16.20;96.00;;;;;;5065811;28;20094;-82
2023/05/18 11:31:56;;;;;;;6.65;1.15;;;16.30;96.20;;;;;;5049590;28;20470;-82
2023/05/18 11:34:43;;;;;;;2.03;0.80;;;16.20;96.00;;;;;;5066718;28;20083;-83
2023/05/18 11:37:38;;;;;;;3.78;1.02;;;16.10;95.50;;;;;;5067343;28;20045;-81
2023/05/18 11:40:05;;;;;;;4.70;1.15;;;16.40;95.70;;;;;;5066212;28;20049;-83
2023/05/18 11:42:35;;;;;;;1.63;0.63;;;16.00;96.10;;;;;;5048924;28;20060;-83
2023/05/18 11:45:11;;;;;;;3.47;0.95;;;16.00;95.80;;;;;;5049094;28;20043;-83
2023/05/18 11:47:41;;;;;;;5.45;0.80;;;16.10;96.10;;;;;;5066818;28;20052;-83
2023/05/18 11:50:09;;;;;;;13.02;5.78;;;16.20;96.00;;;;;;5066442;28;20048;-83
2023/05/18 11:52:50;;;;;;;3.13;0.80;;;15.50;95.60;;;;;;5065657;28;20345;-82
2023/05/18 11:55:18;;;;;;;4.00;1.00;;;16.40;94.90;;;;;;5065259;28;20052;-83
2023/05/18 11:57:53;;;;;;;3.75;0.73;;;16.10;95.50;;;;;;5066363;28;20044;-82
2023/05/18 12:00:19;;;;;;;3.92;1.00;;;16.40;95.30;;;;;;5067663;28;20044;-83
2023/05/18 12:02:47;;;;;;;4.40;0.77;;;16.40;95.20;;;;;;5066406;28;20048;-83
2023/05/18 12:05:13;;;;;;;3.50;1.02;;;16.40;95.00;;;;;;5066493;28;20086;-83
2023/05/18 12:07:40;;;;;;;2.95;0.70;;;16.30;95.00;;;;;;5065791;28;20045;-83
2023/05/18 12:10:09;;;;;;;3.47;0.60;;;16.20;95.00;;;;;;5066063;28;20115;-83
2023/05/18 12:12:35;;;;;;;4.93;0.93;;;16.10;94.90;;;;;;5065307;28;20064;-83
2023/05/18 12:15:04;;;;;;;3.92;0.90;;;16.20;95.40;;;;;;5066133;28;20037;-83
2023/05/18 12:17:42;;;;;;;2.95;0.75;;;16.40;95.40;;;;;;5065542;28;20541;-83
2023/05/18 12:20:13;;;;;;;5.15;1.38;;;16.70;95.80;;;;;;5065386;28;20490;-83
2023/05/18 12:22:41;;;;;;;7.97;1.10;;;17.00;95.40;;;;;;5065903;28;20128;-82
2023/05/18 12:25:07;;;;;;;4.28;1.00;;;17.20;95.20;;;;;;5064677;28;20056;-83
2023/05/18 12:27:43;;;;;;;4.80;1.40;;;17.30;95.00;;;;;;5065681;28;20141;-83
2023/05/18 12:30:22;;;;;;;6.50;0.85;;;17.30;94.50;;;;;;5064870;28;20093;-83
2023/05/18 12:32:53;;;;;;;5.72;1.10;;;17.10;94.20;;;;;;5065584;28;20481;-83
2023/05/18 12:35:24;;;;;;;3.50;0.70;;;16.90;94.40;;;;;;5065436;28;20098;-83
2023/05/18 12:37:49;;;;;;;3.05;1.05;;;16.70;94.60;;;;;;5064865;28;20052;-83
2023/05/18 12:40:17;;;;;;;3.05;1.10;;;16.60;94.70;;;;;;5049404;28;20130;-83
2023/05/18 12:42:58;;;;;;;9.43;1.27;;;16.70;95.00;;;;;;5064586;28;20041;-83
2023/05/18 12:45:31;;;;;;;4.75;1.10;;;17.00;95.50;;;;;;5065590;28;20044;-83
2023/05/18 12:48:04;;;;;;;6.28;1.27;;;17.20;94.80;;;;;;5064726;28;20047;-82
2023/05/18 12:50:30;;;;;;;3.47;1.00;;;17.10;94.20;;;;;;5064876;28;20106;-83
2023/05/18 12:52:56;;;;;;;4.10;0.88;;;16.90;94.60;;;;;;5065427;28;20044;-83
2023/05/18 12:55:23;;;;;;;5.90;1.17;;;16.80;95.20;;;;;;5064525;28;20032;-83
2023/05/18 12:58:00;;;;;;;3.33;1.33;;;16.70;95.00;;;;;;5049149;28;20033;-82